New Glarus, Wisconsin
Current Conditions -  °F | °C
As of 4:35 PM on Monday 24 Nov 2014 (Local Time) from KEFT Reporting Station
Overcast Overcast  
Wind Chill:   Ceiling: 900
Heat Index: 25°   Visibility: 10mi
Dew Point: 23°   Wind: 25mph
Humidity: 93%   Direction: 250°WSW
Pressure: 29.53"   Gusts: 33mph
Location:  42.81°N, 89.64°W
Report Text: KEFT 242235Z AUTO 25022G29KT 10SM OVC009 M04/M05 A2953 RMK AO2
Loading
Personal Weather Stations






























Interactive Weather Map New forecast layout! Learn more

10-Day Weather Forecast

Advertisements
Track Severe Weather on mobile